sensor_id;sensor_type;location;lat;lon;timestamp;P1;durP1;ratioP1;P2;durP2;ratioP2
56746;SDS011;42623;49.978;9.966;2023-12-20T00:00:01;6.20;;;3.30;;
56746;SDS011;42623;49.978;9.966;2023-12-20T00:00:11;5.83;;;3.07;;
56746;SDS011;42623;49.978;9.966;2023-12-20T00:00:21;5.90;;;2.67;;
56746;SDS011;42623;49.978;9.966;2023-12-20T00:00:31;5.90;;;2.60;;
56746;SDS011;42623;49.978;9.966;2023-12-20T00:00:43;6.85;;;2.85;;
56746;SDS011;42623;49.978;9.966;2023-12-20T00:00:53;5.75;;;2.60;;
56746;SDS011;42623;49.978;9.966;2023-12-20T00:01:03;5.23;;;2.53;;
56746;SDS011;42623;49.978;9.966;2023-12-20T00:01:13;5.67;;;2.77;;
56746;SDS011;42623;49.978;9.966;2023-12-20T00:01:24;6.47;;;2.93;;
56746;SDS011;42623;49.978;9.966;2023-12-20T00:01:34;6.67;;;2.97;;
56746;SDS011;42623;49.978;9.966;2023-12-20T00:01:44;6.00;;;2.67;;
56746;SDS011;42623;49.978;9.966;2023-12-20T00:01:54;5.93;;;2.73;;
56746;SDS011;42623;49.978;9.966;2023-12-20T00:02:04;6.30;;;3.00;;
56746;SDS011;42623;49.978;9.966;2023-12-20T00:02:14;6.80;;;3.50;;
56746;SDS011;42623;49.978;9.966;2023-12-20T00:02:25;6.63;;;3.67;;
56746;SDS011;42623;49.978;9.966;2023-12-20T00:02:35;6.60;;;3.70;;
56746;SDS011;42623;49.978;9.966;2023-12-20T00:02:45;5.43;;;2.87;;
56746;SDS011;42623;49.978;9.966;2023-12-20T00:02:56;5.05;;;2.70;;
56746;SDS011;42623;49.978;9.966;2023-12-20T00:03:07;5.33;;;2.77;;
56746;SDS011;42623;49.978;9.966;2023-12-20T00:03:17;5.80;;;3.00;;
56746;SDS011;42623;49.978;9.966;2023-12-20T00:03:27;6.03;;;3.00;;
56746;SDS011;42623;49.978;9.966;2023-12-20T00:03:37;6.43;;;3.30;;
56746;SDS011;42623;49.978;9.966;2023-12-20T00:03:47;6.83;;;3.57;;
56746;SDS011;42623;49.978;9.966;2023-12-20T00:03:57;7.20;;;3.45;;
56746;SDS011;42623;49.978;9.966;2023-12-20T00:04:07;5.73;;;2.63;;
56746;SDS011;42623;49.978;9.966;2023-12-20T00:04:18;5.40;;;2.43;;
56746;SDS011;42623;49.978;9.966;2023-12-20T00:04:28;4.67;;;2.37;;
56746;SDS011;42623;49.978;9.966;2023-12-20T00:04:38;4.87;;;2.50;;
56746;SDS011;42623;49.978;9.966;2023-12-20T00:04:48;4.85;;;2.42;;
56746;SDS011;42623;49.978;9.966;2023-12-20T00:04:58;4.23;;;2.27;;
56746;SDS011;42623;49.978;9.966;2023-12-20T00:05:08;4.53;;;2.40;;
56746;SDS011;42623;49.978;9.966;2023-12-20T00:05:19;5.33;;;2.73;;
56746;SDS011;42623;49.978;9.966;2023-12-20T00:05:29;8.77;;;3.10;;
56746;SDS011;42623;49.978;9.966;2023-12-20T00:05:39;7.90;;;2.70;;
56746;SDS011;42623;49.978;9.966;2023-12-20T00:05:51;5.45;;;2.42;;
56746;SDS011;42623;49.978;9.966;2023-12-20T00:06:01;4.87;;;2.37;;
56746;SDS011;42623;49.978;9.966;2023-12-20T00:06:11;6.20;;;2.57;;
56746;SDS011;42623;49.978;9.966;2023-12-20T00:06:21;5.63;;;2.40;;
56746;SDS011;42623;49.978;9.966;2023-12-20T00:06:31;5.77;;;2.47;;
56746;SDS011;42623;49.978;9.966;2023-12-20T00:06:42;5.22;;;2.47;;
56746;SDS011;42623;49.978;9.966;2023-12-20T00:06:52;5.43;;;2.50;;
56746;SDS011;42623;49.978;9.966;2023-12-20T00:07:02;5.53;;;2.50;;
56746;SDS011;42623;49.978;9.966;2023-12-20T00:07:12;5.63;;;2.70;;
56746;SDS011;42623;49.978;9.966;2023-12-20T00:07:22;5.43;;;2.63;;
56746;SDS011;42623;49.978;9.966;2023-12-20T00:07:32;5.33;;;2.63;;
56746;SDS011;42623;49.978;9.966;2023-12-20T00:07:43;5.13;;;2.60;;
56746;SDS011;42623;49.978;9.966;2023-12-20T00:07:53;4.97;;;2.60;;
56746;SDS011;42623;49.978;9.966;2023-12-20T00:08:03;4.87;;;2.50;;
56746;SDS011;42623;49.978;9.966;2023-12-20T00:08:15;5.70;;;2.60;;
56746;SDS011;42623;49.978;9.966;2023-12-20T00:08:25;6.03;;;2.55;;
56746;SDS011;42623;49.978;9.966;2023-12-20T00:08:35;5.67;;;2.47;;
56746;SDS011;42623;49.978;9.966;2023-12-20T00:08:45;4.57;;;2.20;;
56746;SDS011;42623;49.978;9.966;2023-12-20T00:08:55;4.67;;;2.37;;
56746;SDS011;42623;49.978;9.966;2023-12-20T00:09:05;4.27;;;2.23;;
56746;SDS011;42623;49.978;9.966;2023-12-20T00:09:16;4.22;;;2.28;;
56746;SDS011;42623;49.978;9.966;2023-12-20T00:09:26;4.20;;;2.30;;
56746;SDS011;42623;49.978;9.966;2023-12-20T00:09:37;4.45;;;2.38;;
56746;SDS011;42623;49.978;9.966;2023-12-20T00:09:47;4.57;;;2.30;;
56746;SDS011;42623;49.978;9.966;2023-12-20T00:09:57;4.47;;;2.27;;
56746;SDS011;42623;49.978;9.966;2023-12-20T00:10:07;5.00;;;2.50;;
56746;SDS011;42623;49.978;9.966;2023-12-20T00:10:17;5.25;;;2.70;;
56746;SDS011;42623;49.978;9.966;2023-12-20T00:10:28;5.13;;;2.57;;
56746;SDS011;42623;49.978;9.966;2023-12-20T00:10:38;4.73;;;2.37;;
56746;SDS011;42623;49.978;9.966;2023-12-20T00:10:48;4.70;;;2.37;;
56746;SDS011;42623;49.978;9.966;2023-12-20T00:10:58;4.83;;;2.43;;
56746;SDS011;42623;49.978;9.966;2023-12-20T00:11:08;5.03;;;2.70;;
56746;SDS011;42623;49.978;9.966;2023-12-20T00:11:18;4.73;;;2.70;;
56746;SDS011;42623;49.978;9.966;2023-12-20T00:11:28;4.37;;;2.47;;
56746;SDS011;42623;49.978;9.966;2023-12-20T00:11:39;4.30;;;2.30;;
56746;SDS011;42623;49.978;9.966;2023-12-20T00:11:49;4.68;;;2.25;;
56746;SDS011;42623;49.978;9.966;2023-12-20T00:11:59;4.63;;;2.20;;
56746;SDS011;42623;49.978;9.966;2023-12-20T00:12:09;4.80;;;2.27;;
56746;SDS011;42623;49.978;9.966;2023-12-20T00:12:19;4.83;;;2.40;;
56746;SDS011;42623;49.978;9.966;2023-12-20T00:12:29;5.27;;;2.57;;
56746;SDS011;42623;49.978;9.966;2023-12-20T00:12:40;5.07;;;2.47;;
56746;SDS011;42623;49.978;9.966;2023-12-20T00:12:50;4.70;;;2.40;;
56746;SDS011;42623;49.978;9.966;2023-12-20T00:13:01;5.07;;;2.47;;
56746;SDS011;42623;49.978;9.966;2023-12-20T00:13:11;4.80;;;2.27;;
56746;SDS011;42623;49.978;9.966;2023-12-20T00:13:21;4.47;;;2.10;;
56746;SDS011;42623;49.978;9.966;2023-12-20T00:13:31;4.03;;;2.07;;
56746;SDS011;42623;49.978;9.966;2023-12-20T00:13:41;4.25;;;2.15;;
56746;SDS011;42623;49.978;9.966;2023-12-20T00:13:51;4.43;;;2.10;;
56746;SDS011;42623;49.978;9.966;2023-12-20T00:14:02;4.40;;;2.13;;
56746;SDS011;42623;49.978;9.966;2023-12-20T00:14:12;4.50;;;2.07;;
56746;SDS011;42623;49.978;9.966;2023-12-20T00:14:22;5.13;;;2.37;;
56746;SDS011;42623;49.978;9.966;2023-12-20T00:14:32;6.60;;;3.67;;
56746;SDS011;42623;49.978;9.966;2023-12-20T00:14:42;6.50;;;4.00;;
56746;SDS011;42623;49.978;9.966;2023-12-20T00:14:52;7.77;;;5.53;;
56746;SDS011;42623;49.978;9.966;2023-12-20T00:15:03;13.30;;;12.00;;
56746;SDS011;42623;49.978;9.966;2023-12-20T00:15:13;15.27;;;13.77;;
56746;SDS011;42623;49.978;9.966;2023-12-20T00:15:23;14.20;;;12.80;;
56746;SDS011;42623;49.978;9.966;2023-12-20T00:15:33;9.10;;;7.93;;
56746;SDS011;42623;49.978;9.966;2023-12-20T00:15:43;7.97;;;6.47;;
56746;SDS011;42623;49.978;9.966;2023-12-20T00:15:53;7.07;;;5.07;;
56746;SDS011;42623;49.978;9.966;2023-12-20T00:16:04;6.55;;;4.32;;
56746;SDS011;42623;49.978;9.966;2023-12-20T00:16:14;7.20;;;4.67;;
56746;SDS011;42623;49.978;9.966;2023-12-20T00:16:24;7.40;;;5.00;;
56746;SDS011;42623;49.978;9.966;2023-12-20T00:16:34;7.50;;;4.80;;
56746;SDS011;42623;49.978;9.966;2023-12-20T00:16:44;6.63;;;4.13;;
56746;SDS011;42623;49.978;9.966;2023-12-20T00:16:54;6.10;;;3.38;;
56746;SDS011;42623;49.978;9.966;2023-12-20T00:17:04;5.37;;;2.73;;
56746;SDS011;42623;49.978;9.966;2023-12-20T00:17:14;8.90;;;7.17;;
56746;SDS011;42623;49.978;9.966;2023-12-20T00:17:25;13.17;;;11.93;;
56746;SDS011;42623;49.978;9.966;2023-12-20T00:17:35;15.03;;;13.63;;
56746;SDS011;42623;49.978;9.966;2023-12-20T00:17:45;11.37;;;10.30;;
56746;SDS011;42623;49.978;9.966;2023-12-20T00:17:55;8.13;;;6.40;;
56746;SDS011;42623;49.978;9.966;2023-12-20T00:18:05;7.80;;;5.40;;
56746;SDS011;42623;49.978;9.966;2023-12-20T00:18:15;6.93;;;4.53;;
56746;SDS011;42623;49.978;9.966;2023-12-20T00:18:26;5.40;;;3.47;;
56746;SDS011;42623;49.978;9.966;2023-12-20T00:18:36;4.68;;;2.78;;
56746;SDS011;42623;49.978;9.966;2023-12-20T00:18:46;4.63;;;2.70;;
56746;SDS011;42623;49.978;9.966;2023-12-20T00:18:56;4.90;;;2.63;;
56746;SDS011;42623;49.978;9.966;2023-12-20T00:19:06;5.67;;;2.87;;
56746;SDS011;42623;49.978;9.966;2023-12-20T00:19:17;5.53;;;2.67;;
56746;SDS011;42623;49.978;9.966;2023-12-20T00:19:27;5.53;;;2.70;;
56746;SDS011;42623;49.978;9.966;2023-12-20T00:19:37;4.88;;;2.30;;
56746;SDS011;42623;49.978;9.966;2023-12-20T00:19:48;5.30;;;2.63;;
56746;SDS011;42623;49.978;9.966;2023-12-20T00:19:58;5.53;;;2.90;;
56746;SDS011;42623;49.978;9.966;2023-12-20T00:20:08;5.97;;;3.10;;
56746;SDS011;42623;49.978;9.966;2023-12-20T00:20:18;5.43;;;2.75;;
56746;SDS011;42623;49.978;9.966;2023-12-20T00:20:29;5.23;;;2.57;;
56746;SDS011;42623;49.978;9.966;2023-12-20T00:20:39;5.30;;;2.63;;
56746;SDS011;42623;49.978;9.966;2023-12-20T00:20:49;5.80;;;3.20;;
56746;SDS011;42623;49.978;9.966;2023-12-20T00:21:00;6.43;;;3.60;;
56746;SDS011;42623;49.978;9.966;2023-12-20T00:21:10;6.47;;;3.70;;
56746;SDS011;42623;49.978;9.966;2023-12-20T00:21:20;6.57;;;3.27;;
56746;SDS011;42623;49.978;9.966;2023-12-20T00:21:30;5.70;;;2.83;;
56746;SDS011;42623;49.978;9.966;2023-12-20T00:21:40;5.60;;;2.77;;
56746;SDS011;42623;49.978;9.966;2023-12-20T00:21:50;4.93;;;2.80;;
56746;SDS011;42623;49.978;9.966;2023-12-20T00:22:00;5.00;;;2.77;;
56746;SDS011;42623;49.978;9.966;2023-12-20T00:22:11;4.53;;;2.47;;
56746;SDS011;42623;49.978;9.966;2023-12-20T00:22:21;4.73;;;2.60;;
56746;SDS011;42623;49.978;9.966;2023-12-20T00:22:31;5.50;;;2.97;;
56746;SDS011;42623;49.978;9.966;2023-12-20T00:22:41;6.13;;;3.43;;
56746;SDS011;42623;49.978;9.966;2023-12-20T00:22:52;7.53;;;5.20;;
56746;SDS011;42623;49.978;9.966;2023-12-20T00:23:02;8.30;;;6.93;;
56746;SDS011;42623;49.978;9.966;2023-12-20T00:23:13;8.73;;;7.10;;
56746;SDS011;42623;49.978;9.966;2023-12-20T00:23:23;7.20;;;5.27;;
56746;SDS011;42623;49.978;9.966;2023-12-20T00:23:33;5.30;;;3.03;;
56746;SDS011;42623;49.978;9.966;2023-12-20T00:23:43;3.83;;;2.17;;
56746;SDS011;42623;49.978;9.966;2023-12-20T00:23:53;3.77;;;1.97;;
56746;SDS011;42623;49.978;9.966;2023-12-20T00:24:04;3.47;;;1.93;;
56746;SDS011;42623;49.978;9.966;2023-12-20T00:24:14;3.33;;;1.80;;
56746;SDS011;42623;49.978;9.966;2023-12-20T00:24:24;3.25;;;1.77;;
56746;SDS011;42623;49.978;9.966;2023-12-20T00:24:35;4.10;;;2.17;;
56746;SDS011;42623;49.978;9.966;2023-12-20T00:24:45;4.60;;;2.50;;
56746;SDS011;42623;49.978;9.966;2023-12-20T00:24:55;4.77;;;2.43;;
56746;SDS011;42623;49.978;9.966;2023-12-20T00:25:05;4.00;;;2.00;;
56746;SDS011;42623;49.978;9.966;2023-12-20T00:25:15;4.93;;;2.47;;
56746;SDS011;42623;49.978;9.966;2023-12-20T00:25:25;5.00;;;2.70;;
56746;SDS011;42623;49.978;9.966;2023-12-20T00:25:35;5.17;;;2.97;;
56746;SDS011;42623;49.978;9.966;2023-12-20T00:25:46;4.30;;;2.47;;
56746;SDS011;42623;49.978;9.966;2023-12-20T00:25:56;4.60;;;2.90;;
56746;SDS011;42623;49.978;9.966;2023-12-20T00:26:06;5.00;;;2.87;;
56746;SDS011;42623;49.978;9.966;2023-12-20T00:26:16;5.20;;;2.90;;
56746;SDS011;42623;49.978;9.966;2023-12-20T00:26:26;5.00;;;2.70;;
56746;SDS011;42623;49.978;9.966;2023-12-20T00:26:38;5.13;;;2.85;;
56746;SDS011;42623;49.978;9.966;2023-12-20T00:26:48;4.80;;;2.53;;
56746;SDS011;42623;49.978;9.966;2023-12-20T00:26:58;4.57;;;2.20;;
56746;SDS011;42623;49.978;9.966;2023-12-20T00:27:08;4.80;;;2.30;;
56746;SDS011;42623;49.978;9.966;2023-12-20T00:27:18;5.03;;;2.50;;
56746;SDS011;42623;49.978;9.966;2023-12-20T00:27:28;5.23;;;2.60;;
56746;SDS011;42623;49.978;9.966;2023-12-20T00:27:39;4.72;;;2.33;;
56746;SDS011;42623;49.978;9.966;2023-12-20T00:27:49;4.63;;;2.20;;
56746;SDS011;42623;49.978;9.966;2023-12-20T00:28:00;4.47;;;2.13;;
56746;SDS011;42623;49.978;9.966;2023-12-20T00:28:10;4.30;;;2.10;;
56746;SDS011;42623;49.978;9.966;2023-12-20T00:28:20;3.95;;;2.10;;
56746;SDS011;42623;49.978;9.966;2023-12-20T00:28:30;3.43;;;1.90;;
56746;SDS011;42623;49.978;9.966;2023-12-20T00:28:40;4.50;;;3.23;;
56746;SDS011;42623;49.978;9.966;2023-12-20T00:28:50;4.77;;;3.40;;
56746;SDS011;42623;49.978;9.966;2023-12-20T00:29:01;5.20;;;3.60;;
56746;SDS011;42623;49.978;9.966;2023-12-20T00:29:11;4.13;;;2.20;;
56746;SDS011;42623;49.978;9.966;2023-12-20T00:29:21;4.23;;;2.17;;
56746;SDS011;42623;49.978;9.966;2023-12-20T00:29:31;4.33;;;2.17;;
56746;SDS011;42623;49.978;9.966;2023-12-20T00:29:41;4.90;;;2.30;;
56746;SDS011;42623;49.978;9.966;2023-12-20T00:29:53;4.93;;;2.33;;
56746;SDS011;42623;49.978;9.966;2023-12-20T00:30:03;4.60;;;2.23;;
56746;SDS011;42623;49.978;9.966;2023-12-20T00:30:13;4.18;;;2.13;;
56746;SDS011;42623;49.978;9.966;2023-12-20T00:30:23;4.33;;;2.27;;
56746;SDS011;42623;49.978;9.966;2023-12-20T00:30:34;4.00;;;2.23;;
56746;SDS011;42623;49.978;9.966;2023-12-20T00:30:44;4.77;;;2.63;;
56746;SDS011;42623;49.978;9.966;2023-12-20T00:30:54;5.97;;;4.13;;
56746;SDS011;42623;49.978;9.966;2023-12-20T00:31:04;7.30;;;4.73;;
56746;SDS011;42623;49.978;9.966;2023-12-20T00:31:14;7.33;;;5.10;;
56746;SDS011;42623;49.978;9.966;2023-12-20T00:31:24;6.53;;;4.03;;
56746;SDS011;42623;49.978;9.966;2023-12-20T00:31:35;5.63;;;3.60;;
56746;SDS011;42623;49.978;9.966;2023-12-20T00:31:45;5.72;;;3.03;;
56746;SDS011;42623;49.978;9.966;2023-12-20T00:31:55;5.50;;;2.83;;
56746;SDS011;42623;49.978;9.966;2023-12-20T00:32:06;5.67;;;2.80;;
56746;SDS011;42623;49.978;9.966;2023-12-20T00:32:16;4.90;;;2.53;;
56746;SDS011;42623;49.978;9.966;2023-12-20T00:32:26;4.47;;;2.20;;
56746;SDS011;42623;49.978;9.966;2023-12-20T00:32:37;4.15;;;2.08;;
56746;SDS011;42623;49.978;9.966;2023-12-20T00:32:47;4.03;;;1.97;;
56746;SDS011;42623;49.978;9.966;2023-12-20T00:32:57;5.00;;;2.30;;
56746;SDS011;42623;49.978;9.966;2023-12-20T00:33:07;4.83;;;2.30;;
56746;SDS011;42623;49.978;9.966;2023-12-20T00:33:17;5.17;;;2.47;;
56746;SDS011;42623;49.978;9.966;2023-12-20T00:33:27;4.88;;;2.40;;
56746;SDS011;42623;49.978;9.966;2023-12-20T00:33:37;5.33;;;2.80;;
56746;SDS011;42623;49.978;9.966;2023-12-20T00:33:49;4.82;;;2.75;;
56746;SDS011;42623;49.978;9.966;2023-12-20T00:33:59;4.43;;;2.60;;
56746;SDS011;42623;49.978;9.966;2023-12-20T00:34:10;4.43;;;2.50;;
56746;SDS011;42623;49.978;9.966;2023-12-20T00:34:20;4.27;;;2.23;;
56746;SDS011;42623;49.978;9.966;2023-12-20T00:34:30;4.23;;;2.10;;
56746;SDS011;42623;49.978;9.966;2023-12-20T00:34:40;4.25;;;2.08;;
56746;SDS011;42623;49.978;9.966;2023-12-20T00:34:50;4.20;;;2.20;;
56746;SDS011;42623;49.978;9.966;2023-12-20T00:35:00;4.60;;;2.50;;
56746;SDS011;42623;49.978;9.966;2023-12-20T00:35:10;4.70;;;2.57;;
56746;SDS011;42623;49.978;9.966;2023-12-20T00:35:20;4.60;;;2.37;;
56746;SDS011;42623;49.978;9.966;2023-12-20T00:35:31;3.87;;;2.00;;
56746;SDS011;42623;49.978;9.966;2023-12-20T00:35:41;3.75;;;1.95;;
56746;SDS011;42623;49.978;9.966;2023-12-20T00:35:51;3.77;;;2.00;;
56746;SDS011;42623;49.978;9.966;2023-12-20T00:36:01;4.37;;;2.17;;
56746;SDS011;42623;49.978;9.966;2023-12-20T00:36:11;4.47;;;2.30;;
56746;SDS011;42623;49.978;9.966;2023-12-20T00:36:21;5.00;;;2.60;;
56746;SDS011;42623;49.978;9.966;2023-12-20T00:36:31;4.22;;;2.40;;
56746;SDS011;42623;49.978;9.966;2023-12-20T00:36:41;4.00;;;2.20;;
56746;SDS011;42623;49.978;9.966;2023-12-20T00:36:52;4.10;;;2.20;;
56746;SDS011;42623;49.978;9.966;2023-12-20T00:37:02;4.77;;;2.47;;
56746;SDS011;42623;49.978;9.966;2023-12-20T00:37:12;5.30;;;2.83;;
56746;SDS011;42623;49.978;9.966;2023-12-20T00:37:22;5.10;;;2.88;;
56746;SDS011;42623;49.978;9.966;2023-12-20T00:37:33;5.15;;;2.72;;
56746;SDS011;42623;49.978;9.966;2023-12-20T00:37:43;4.50;;;2.20;;
56746;SDS011;42623;49.978;9.966;2023-12-20T00:37:54;4.73;;;2.33;;
56746;SDS011;42623;49.978;9.966;2023-12-20T00:38:04;5.30;;;2.53;;
56746;SDS011;42623;49.978;9.966;2023-12-20T00:38:15;5.75;;;2.67;;
56746;SDS011;42623;49.978;9.966;2023-12-20T00:38:25;5.53;;;2.97;;
56746;SDS011;42623;49.978;9.966;2023-12-20T00:38:35;5.27;;;2.97;;
56746;SDS011;42623;49.978;9.966;2023-12-20T00:38:45;5.50;;;3.43;;
56746;SDS011;42623;49.978;9.966;2023-12-20T00:38:55;5.30;;;3.17;;
56746;SDS011;42623;49.978;9.966;2023-12-20T00:39:06;4.90;;;3.00;;
56746;SDS011;42623;49.978;9.966;2023-12-20T00:39:16;4.80;;;2.63;;
56746;SDS011;42623;49.978;9.966;2023-12-20T00:39:27;4.20;;;2.17;;
56746;SDS011;42623;49.978;9.966;2023-12-20T00:39:37;5.17;;;2.10;;
56746;SDS011;42623;49.978;9.966;2023-12-20T00:39:47;4.97;;;2.00;;
56746;SDS011;42623;49.978;9.966;2023-12-20T00:39:57;5.43;;;2.25;;
56746;SDS011;42623;49.978;9.966;2023-12-20T00:40:08;5.10;;;2.73;;
56746;SDS011;42623;49.978;9.966;2023-12-20T00:40:18;5.43;;;2.80;;
56746;SDS011;42623;49.978;9.966;2023-12-20T00:40:28;5.30;;;2.63;;
56746;SDS011;42623;49.978;9.966;2023-12-20T00:40:38;5.10;;;2.17;;
56746;SDS011;42623;49.978;9.966;2023-12-20T00:40:48;4.67;;;2.00;;
56746;SDS011;42623;49.978;9.966;2023-12-20T00:40:59;4.57;;;1.95;;
56746;SDS011;42623;49.978;9.966;2023-12-20T00:41:09;4.00;;;1.80;;
56746;SDS011;42623;49.978;9.966;2023-12-20T00:41:20;4.17;;;1.90;;
56746;SDS011;42623;49.978;9.966;2023-12-20T00:41:30;4.23;;;2.10;;
56746;SDS011;42623;49.978;9.966;2023-12-20T00:41:40;5.07;;;2.40;;
56746;SDS011;42623;49.978;9.966;2023-12-20T00:41:50;5.53;;;2.63;;
56746;SDS011;42623;49.978;9.966;2023-12-20T00:42:00;6.13;;;2.50;;
56746;SDS011;42623;49.978;9.966;2023-12-20T00:42:10;6.00;;;2.30;;
56746;SDS011;42623;49.978;9.966;2023-12-20T00:42:20;5.00;;;1.97;;
56746;SDS011;42623;49.978;9.966;2023-12-20T00:42:31;4.68;;;2.05;;
56746;SDS011;42623;49.978;9.966;2023-12-20T00:42:41;4.70;;;2.40;;
56746;SDS011;42623;49.978;9.966;2023-12-20T00:42:51;5.57;;;2.77;;
56746;SDS011;42623;49.978;9.966;2023-12-20T00:43:01;6.43;;;3.05;;
56746;SDS011;42623;49.978;9.966;2023-12-20T00:43:12;5.87;;;2.73;;
56746;SDS011;42623;49.978;9.966;2023-12-20T00:43:22;6.20;;;2.63;;
56746;SDS011;42623;49.978;9.966;2023-12-20T00:43:32;5.27;;;2.30;;
56746;SDS011;42623;49.978;9.966;2023-12-20T00:43:42;5.80;;;2.40;;
56746;SDS011;42623;49.978;9.966;2023-12-20T00:43:52;4.93;;;2.30;;
56746;SDS011;42623;49.978;9.966;2023-12-20T00:44:02;5.13;;;2.40;;
56746;SDS011;42623;49.978;9.966;2023-12-20T00:44:13;5.20;;;2.60;;
56746;SDS011;42623;49.978;9.966;2023-12-20T00:44:23;4.63;;;2.30;;
56746;SDS011;42623;49.978;9.966;2023-12-20T00:44:33;4.03;;;2.07;;
56746;SDS011;42623;49.978;9.966;2023-12-20T00:44:43;3.63;;;1.90;;
56746;SDS011;42623;49.978;9.966;2023-12-20T00:44:53;4.00;;;2.13;;
56746;SDS011;42623;49.978;9.966;2023-12-20T00:45:04;4.40;;;2.70;;
56746;SDS011;42623;49.978;9.966;2023-12-20T00:45:14;4.47;;;2.60;;
56746;SDS011;42623;49.978;9.966;2023-12-20T00:45:25;5.50;;;2.57;;
56746;SDS011;42623;49.978;9.966;2023-12-20T00:45:35;5.10;;;2.00;;
56746;SDS011;42623;49.978;9.966;2023-12-20T00:45:45;4.90;;;1.93;;
56746;SDS011;42623;49.978;9.966;2023-12-20T00:45:55;4.13;;;1.90;;
56746;SDS011;42623;49.978;9.966;2023-12-20T00:46:05;4.63;;;2.10;;
56746;SDS011;42623;49.978;9.966;2023-12-20T00:46:15;4.85;;;2.22;;
56746;SDS011;42623;49.978;9.966;2023-12-20T00:46:26;4.60;;;2.23;;
56746;SDS011;42623;49.978;9.966;2023-12-20T00:46:36;3.93;;;2.07;;
56746;SDS011;42623;49.978;9.966;2023-12-20T00:46:46;5.07;;;2.13;;
56746;SDS011;42623;49.978;9.966;2023-12-20T00:46:57;5.20;;;2.10;;
56746;SDS011;42623;49.978;9.966;2023-12-20T00:47:07;5.72;;;2.28;;
56746;SDS011;42623;49.978;9.966;2023-12-20T00:47:17;4.93;;;2.30;;
56746;SDS011;42623;49.978;9.966;2023-12-20T00:47:27;5.63;;;2.58;;
56746;SDS011;42623;49.978;9.966;2023-12-20T00:47:37;6.10;;;2.50;;
56746;SDS011;42623;49.978;9.966;2023-12-20T00:47:47;5.70;;;2.60;;
56746;SDS011;42623;49.978;9.966;2023-12-20T00:47:58;5.53;;;2.60;;
56746;SDS011;42623;49.978;9.966;2023-12-20T00:48:09;5.25;;;2.78;;
56746;SDS011;42623;49.978;9.966;2023-12-20T00:48:19;5.07;;;2.58;;
56746;SDS011;42623;49.978;9.966;2023-12-20T00:48:29;4.87;;;2.37;;
56746;SDS011;42623;49.978;9.966;2023-12-20T00:48:42;4.63;;;2.10;;
56746;SDS011;42623;49.978;9.966;2023-12-20T00:48:52;4.93;;;2.37;;
56746;SDS011;42623;49.978;9.966;2023-12-20T00:49:02;5.60;;;2.67;;
56746;SDS011;42623;49.978;9.966;2023-12-20T00:49:12;6.30;;;2.70;;
56746;SDS011;42623;49.978;9.966;2023-12-20T00:49:22;7.03;;;2.60;;
56746;SDS011;42623;49.978;9.966;2023-12-20T00:49:32;6.63;;;2.50;;
56746;SDS011;42623;49.978;9.966;2023-12-20T00:49:43;6.17;;;2.60;;
56746;SDS011;42623;49.978;9.966;2023-12-20T00:49:53;5.77;;;2.77;;
56746;SDS011;42623;49.978;9.966;2023-12-20T00:50:03;6.00;;;3.00;;
56746;SDS011;42623;49.978;9.966;2023-12-20T00:50:13;5.83;;;2.90;;
56746;SDS011;42623;49.978;9.966;2023-12-20T00:50:23;6.50;;;2.55;;
56746;SDS011;42623;49.978;9.966;2023-12-20T00:50:33;6.13;;;2.37;;
56746;SDS011;42623;49.978;9.966;2023-12-20T00:50:44;5.73;;;2.13;;
56746;SDS011;42623;49.978;9.966;2023-12-20T00:50:54;4.00;;;1.93;;
56746;SDS011;42623;49.978;9.966;2023-12-20T00:51:04;4.53;;;2.03;;
56746;SDS011;42623;49.978;9.966;2023-12-20T00:51:14;5.72;;;2.42;;
56746;SDS011;42623;49.978;9.966;2023-12-20T00:51:24;6.07;;;2.60;;
56746;SDS011;42623;49.978;9.966;2023-12-20T00:51:34;6.10;;;2.80;;
56746;SDS011;42623;49.978;9.966;2023-12-20T00:51:44;5.17;;;2.80;;
56746;SDS011;42623;49.978;9.966;2023-12-20T00:51:55;5.60;;;3.00;;
56746;SDS011;42623;49.978;9.966;2023-12-20T00:52:05;5.32;;;2.83;;
56746;SDS011;42623;49.978;9.966;2023-12-20T00:52:15;6.10;;;2.93;;
56746;SDS011;42623;49.978;9.966;2023-12-20T00:52:27;7.43;;;3.03;;
56746;SDS011;42623;49.978;9.966;2023-12-20T00:52:37;7.07;;;2.70;;
56746;SDS011;42623;49.978;9.966;2023-12-20T00:52:47;6.53;;;2.47;;
56746;SDS011;42623;49.978;9.966;2023-12-20T00:52:58;5.22;;;2.35;;
56746;SDS011;42623;49.978;9.966;2023-12-20T00:53:08;4.57;;;2.20;;
56746;SDS011;42623;49.978;9.966;2023-12-20T00:53:18;4.53;;;2.23;;
56746;SDS011;42623;49.978;9.966;2023-12-20T00:53:28;4.53;;;2.23;;
56746;SDS011;42623;49.978;9.966;2023-12-20T00:53:38;4.85;;;2.42;;
56746;SDS011;42623;49.978;9.966;2023-12-20T00:53:49;4.70;;;2.50;;
56746;SDS011;42623;49.978;9.966;2023-12-20T00:54:00;4.68;;;2.40;;
56746;SDS011;42623;49.978;9.966;2023-12-20T00:54:10;5.30;;;2.40;;
56746;SDS011;42623;49.978;9.966;2023-12-20T00:54:20;5.97;;;2.50;;
56746;SDS011;42623;49.978;9.966;2023-12-20T00:54:30;6.07;;;2.75;;
56746;SDS011;42623;49.978;9.966;2023-12-20T00:54:40;5.57;;;3.10;;
56746;SDS011;42623;49.978;9.966;2023-12-20T00:54:51;5.80;;;3.20;;
56746;SDS011;42623;49.978;9.966;2023-12-20T00:55:02;5.82;;;3.15;;
56746;SDS011;42623;49.978;9.966;2023-12-20T00:55:13;5.72;;;2.83;;
56746;SDS011;42623;49.978;9.966;2023-12-20T00:55:24;4.57;;;2.30;;
56746;SDS011;42623;49.978;9.966;2023-12-20T00:55:34;5.03;;;2.55;;
56746;SDS011;42623;49.978;9.966;2023-12-20T00:55:45;5.47;;;2.90;;
56746;SDS011;42623;49.978;9.966;2023-12-20T00:55:55;6.50;;;3.30;;
56746;SDS011;42623;49.978;9.966;2023-12-20T00:56:05;6.40;;;3.43;;
56746;SDS011;42623;49.978;9.966;2023-12-20T00:56:16;6.53;;;3.40;;
56746;SDS011;42623;49.978;9.966;2023-12-20T00:56:26;6.03;;;3.20;;
56746;SDS011;42623;49.978;9.966;2023-12-20T00:56:36;5.30;;;2.57;;
56746;SDS011;42623;49.978;9.966;2023-12-20T00:56:46;4.90;;;2.10;;
56746;SDS011;42623;49.978;9.966;2023-12-20T00:56:57;4.83;;;2.20;;
56746;SDS011;42623;49.978;9.966;2023-12-20T00:57:07;4.60;;;2.27;;
56746;SDS011;42623;49.978;9.966;2023-12-20T00:57:17;5.17;;;2.67;;
56746;SDS011;42623;49.978;9.966;2023-12-20T00:57:27;5.10;;;2.40;;
56746;SDS011;42623;49.978;9.966;2023-12-20T00:57:37;5.28;;;2.50;;
56746;SDS011;42623;49.978;9.966;2023-12-20T00:57:47;4.77;;;2.37;;
56746;SDS011;42623;49.978;9.966;2023-12-20T00:57:57;5.13;;;2.60;;
56746;SDS011;42623;49.978;9.966;2023-12-20T00:58:09;5.13;;;2.63;;
56746;SDS011;42623;49.978;9.966;2023-12-20T00:58:19;4.47;;;2.33;;
56746;SDS011;42623;49.978;9.966;2023-12-20T00:58:29;4.60;;;2.30;;
56746;SDS011;42623;49.978;9.966;2023-12-20T00:58:39;4.53;;;2.07;;
56746;SDS011;42623;49.978;9.966;2023-12-20T00:58:49;4.83;;;2.23;;
56746;SDS011;42623;49.978;9.966;2023-12-20T00:59:00;5.10;;;2.30;;
56746;SDS011;42623;49.978;9.966;2023-12-20T00:59:10;4.90;;;2.23;;
56746;SDS011;42623;49.978;9.966;2023-12-20T00:59:20;5.07;;;1.90;;
56746;SDS011;42623;49.978;9.966;2023-12-20T00:59:30;4.60;;;1.75;;
56746;SDS011;42623;49.978;9.966;2023-12-20T00:59:41;4.97;;;2.00;;
56746;SDS011;42623;49.978;9.966;2023-12-20T00:59:51;4.90;;;2.10;;
56746;SDS011;42623;49.978;9.966;2023-12-20T01:00:01;5.03;;;2.17;;
56746;SDS011;42623;49.978;9.966;2023-12-20T01:00:11;4.85;;;2.10;;
56746;SDS011;42623;49.978;9.966;2023-12-20T01:00:23;4.68;;;2.28;;
56746;SDS011;42623;49.978;9.966;2023-12-20T01:00:33;4.57;;;2.37;;
56746;SDS011;42623;49.978;9.966;2023-12-20T01:00:43;4.40;;;2.53;;
56746;SDS011;42623;49.978;9.966;2023-12-20T01:00:53;4.60;;;2.57;;
56746;SDS011;42623;49.978;9.966;2023-12-20T01:01:04;4.40;;;2.53;;
56746;SDS011;42623;49.978;9.966;2023-12-20T01:01:14;4.47;;;2.40;;
56746;SDS011;42623;49.978;9.966;2023-12-20T01:01:25;15.88;;;9.82;;
56746;SDS011;42623;49.978;9.966;2023-12-20T01:01:35;62.57;;;38.97;;
56746;SDS011;42623;49.978;9.966;2023-12-20T01:01:45;84.87;;;55.57;;